createdAt,value
2022-09-07T00:00:14.340Z,35.48
2022-09-07T00:01:16.631Z,21.76
2022-09-07T00:02:15.236Z,30.64
2022-09-07T00:03:14.787Z,41.72
2022-09-07T00:04:12.802Z,35.40
2022-09-07T00:05:14.966Z,30.52
2022-09-07T00:06:15.722Z,24.20
2022-09-07T00:07:15.357Z,28.84
2022-09-07T00:08:14.846Z,42.08
2022-09-07T00:09:15.414Z,36.92
2022-09-07T00:10:13.318Z,31.88
2022-09-07T00:11:13.337Z,36.16
2022-09-07T00:12:13.209Z,28.36
2022-09-07T00:13:15.504Z,28.76
2022-09-07T00:14:13.448Z,22.60
2022-09-07T00:15:13.221Z,23.72
2022-09-07T00:16:13.373Z,17.56
2022-09-07T00:17:13.713Z,23.72
2022-09-07T00:18:13.936Z,18.00
2022-09-07T00:19:12.787Z,15.48
2022-09-07T00:20:14.186Z,19.48
2022-09-07T00:21:13.265Z,14.76
2022-09-07T00:22:13.483Z,21.20
2022-09-07T00:23:16.364Z,14.08
2022-09-07T00:24:15.443Z,15.20
2022-09-07T00:25:13.572Z,12.56
2022-09-07T00:26:13.391Z,14.16
2022-09-07T00:27:15.424Z,18.56
2022-09-07T00:28:13.421Z,18.36
2022-09-07T00:29:13.447Z,14.28
2022-09-07T00:30:14.499Z,19.12
2022-09-07T00:31:13.508Z,20.56
2022-09-07T00:32:13.380Z,12.36
2022-09-07T00:33:14.867Z,18.68
2022-09-07T00:34:14.230Z,13.44
2022-09-07T00:35:13.443Z,11.40
2022-09-07T00:36:13.766Z,14.12
2022-09-07T00:37:14.221Z,15.68
2022-09-07T00:38:14.237Z,15.20
2022-09-07T00:39:13.393Z,19.28
2022-09-07T00:40:13.423Z,18.24
2022-09-07T00:41:13.369Z,15.88
2022-09-07T00:42:13.413Z,9.48
2022-09-07T00:43:13.442Z,13.16
2022-09-07T00:44:14.933Z,19.88
2022-09-07T00:45:12.827Z,20.28
2022-09-07T00:46:13.824Z,16.52
2022-09-07T00:47:13.822Z,14.40
2022-09-07T00:48:14.048Z,13.56
2022-09-07T00:49:12.922Z,11.44
2022-09-07T00:50:14.463Z,11.72
2022-09-07T00:51:13.396Z,12.32
2022-09-07T00:52:13.199Z,9.72
2022-09-07T00:53:14.110Z,8.48
2022-09-07T00:54:15.675Z,6.72
2022-09-07T00:55:13.900Z,3.96
2022-09-07T00:56:12.802Z,4.28
2022-09-07T00:57:19.050Z,8.64
2022-09-07T00:58:12.963Z,4.04
2022-09-07T00:59:13.238Z,7.36
2022-09-07T01:00:13.280Z,8.76
2022-09-07T01:01:13.179Z,6.88
2022-09-07T01:02:13.203Z,5.76
2022-09-07T01:03:13.530Z,7.00
2022-09-07T01:04:13.551Z,8.56
2022-09-07T01:05:14.811Z,6.96
2022-09-07T01:06:15.163Z,10.96
2022-09-07T01:07:13.352Z,4.52
2022-09-07T01:08:13.540Z,7.64
2022-09-07T01:09:13.434Z,2.68
2022-09-07T01:10:13.444Z,3.84
2022-09-07T01:11:14.546Z,3.92
2022-09-07T01:12:13.942Z,5.16
2022-09-07T01:13:12.800Z,7.16
2022-09-07T01:14:13.725Z,2.04
2022-09-07T01:15:15.285Z,2.56
2022-09-07T01:16:13.562Z,1.28
2022-09-07T01:17:13.444Z,2.20
2022-09-07T01:18:13.348Z,0.64
2022-09-07T01:19:13.644Z,2.40
2022-09-07T01:20:13.672Z,2.08
2022-09-07T01:21:13.714Z,4.60
2022-09-07T01:22:13.652Z,4.16
2022-09-07T01:23:13.470Z,3.28
2022-09-07T01:24:13.329Z,5.60
2022-09-07T01:25:13.172Z,3.60
2022-09-07T01:26:13.089Z,3.32
2022-09-07T01:27:13.040Z,7.04
2022-09-07T01:28:12.984Z,3.60
2022-09-07T01:29:13.100Z,6.52
2022-09-07T01:30:13.140Z,3.64
2022-09-07T01:31:13.320Z,1.60
2022-09-07T01:32:13.523Z,2.36
2022-09-07T01:33:13.387Z,0.76
2022-09-07T01:34:13.844Z,3.80
2022-09-07T01:35:13.764Z,6.00
2022-09-07T01:36:13.646Z,6.12
2022-09-07T01:37:13.426Z,3.64
2022-09-07T01:38:13.457Z,2.37
2022-09-07T01:39:13.336Z,1.20
2022-09-07T01:40:13.666Z,1.28
2022-09-07T01:41:13.502Z,0.32
2022-09-07T01:42:13.337Z,0.36
2022-09-07T01:43:13.317Z,0.84
2022-09-07T01:44:13.237Z,0.48
2022-09-07T01:45:13.109Z,2.12
2022-09-07T01:46:13.371Z,1.48
2022-09-07T01:47:13.655Z,0.16
2022-09-07T01:48:13.743Z,0.56
2022-09-07T01:49:13.984Z,1.24
2022-09-07T01:50:12.907Z,0.52
2022-09-07T01:51:12.781Z,1.88
2022-09-07T01:52:13.678Z,1.12
2022-09-07T01:53:13.545Z,0.96
2022-09-07T01:54:13.386Z,1.44
2022-09-07T01:55:13.406Z,0.44
2022-09-07T01:56:13.320Z,0.00
2022-09-07T01:57:13.355Z,0.08
2022-09-07T01:58:13.379Z,0.00
2022-09-07T01:59:13.280Z,0.08
2022-09-07T02:00:13.176Z,0.32
2022-09-07T02:01:13.401Z,0.00
2022-09-07T02:02:13.706Z,0.00
2022-09-07T02:03:14.189Z,0.00
2022-09-07T02:04:13.398Z,0.20
2022-09-07T02:05:13.299Z,0.00
2022-09-07T02:06:13.197Z,0.32
2022-09-07T02:07:13.108Z,1.08
2022-09-07T02:08:13.027Z,0.60
2022-09-07T02:09:12.877Z,4.32
2022-09-07T02:10:13.726Z,3.72
2022-09-07T02:11:13.606Z,1.00
2022-09-07T02:12:13.492Z,1.00
2022-09-07T02:13:13.316Z,0.56
2022-09-07T02:14:13.148Z,1.12
2022-09-07T02:15:13.390Z,0.60
2022-09-07T02:16:13.742Z,0.00
2022-09-07T02:17:13.637Z,1.76
2022-09-07T02:18:13.990Z,2.48
2022-09-07T02:19:12.978Z,0.88
2022-09-07T02:20:13.162Z,1.72
2022-09-07T02:21:13.062Z,0.52
2022-09-07T02:22:13.502Z,0.40
2022-09-07T02:23:13.614Z,0.24
2022-09-07T02:24:14.190Z,0.48
2022-09-07T02:25:13.153Z,0.08
2022-09-07T02:26:13.047Z,0.24
2022-09-07T02:27:14.703Z,0.00
2022-09-07T02:28:13.794Z,0.32
2022-09-07T02:29:14.135Z,0.04
2022-09-07T02:30:13.078Z,1.52
2022-09-07T02:31:13.046Z,0.56
2022-09-07T02:32:13.176Z,0.48
2022-09-07T02:33:13.091Z,0.12
2022-09-07T02:34:13.046Z,0.56
2022-09-07T02:35:13.155Z,0.04
2022-09-07T02:36:13.025Z,0.20
2022-09-07T02:37:13.233Z,0.00
2022-09-07T02:38:13.505Z,0.16
2022-09-07T02:39:13.810Z,0.40
2022-09-07T02:40:13.832Z,1.16
2022-09-07T02:41:13.986Z,0.44
2022-09-07T02:42:13.061Z,0.76
2022-09-07T02:43:13.100Z,0.04
2022-09-07T02:44:13.417Z,0.04
2022-09-07T02:45:13.666Z,0.96
2022-09-07T02:46:14.117Z,1.16
2022-09-07T02:47:13.342Z,0.00
2022-09-07T02:48:13.528Z,0.20
2022-09-07T02:49:13.834Z,0.60
2022-09-07T02:50:13.692Z,0.40
2022-09-07T02:51:13.629Z,0.08
2022-09-07T02:52:13.472Z,0.28
2022-09-07T02:53:13.290Z,0.00
2022-09-07T02:54:13.561Z,0.00
2022-09-07T02:55:15.068Z,0.00
2022-09-07T02:56:13.119Z,0.12
2022-09-07T02:57:13.410Z,0.00
2022-09-07T02:58:13.487Z,0.08
2022-09-07T02:59:13.550Z,0.20
2022-09-07T03:00:13.675Z,2.28
2022-09-07T03:01:13.563Z,0.12
2022-09-07T03:02:13.670Z,1.24
2022-09-07T03:03:13.621Z,6.16
2022-09-07T03:04:13.441Z,1.32
2022-09-07T03:05:13.270Z,0.00
2022-09-07T03:06:13.234Z,0.00
2022-09-07T03:07:13.637Z,1.20
2022-09-07T03:08:13.727Z,3.56
2022-09-07T03:09:13.652Z,3.64
2022-09-07T03:10:13.484Z,1.64
2022-09-07T03:11:13.374Z,1.04
2022-09-07T03:12:13.448Z,0.00
2022-09-07T03:13:13.481Z,2.44
2022-09-07T03:14:13.757Z,0.40
2022-09-07T03:15:14.479Z,1.68
2022-09-07T03:16:13.499Z,1.60
2022-09-07T03:17:13.423Z,2.12
2022-09-07T03:18:13.327Z,4.76
2022-09-07T03:19:14.823Z,6.00
2022-09-07T03:20:13.674Z,3.04
2022-09-07T03:21:13.537Z,4.28
2022-09-07T03:22:13.414Z,1.24
2022-09-07T03:23:13.575Z,1.60
2022-09-07T03:24:13.418Z,1.32
2022-09-07T03:25:13.324Z,0.48
2022-09-07T03:26:13.394Z,1.60
2022-09-07T03:27:13.423Z,3.60
2022-09-07T03:28:15.271Z,2.08
2022-09-07T03:29:13.298Z,0.04
2022-09-07T03:30:13.364Z,0.80
2022-09-07T03:31:13.359Z,2.28
2022-09-07T03:32:13.323Z,0.16
2022-09-07T03:33:13.245Z,2.28
2022-09-07T03:34:13.061Z,2.20
2022-09-07T03:35:14.309Z,0.52
2022-09-07T03:36:13.406Z,1.76
2022-09-07T03:37:13.356Z,3.32
2022-09-07T03:38:13.277Z,3.44
2022-09-07T03:39:14.421Z,2.04
2022-09-07T03:40:13.394Z,2.52
2022-09-07T03:41:13.368Z,1.40
2022-09-07T03:42:13.497Z,3.46
2022-09-07T03:43:13.422Z,2.92
2022-09-07T03:44:13.424Z,2.28
2022-09-07T03:45:13.361Z,2.48
2022-09-07T03:46:13.628Z,0.84
2022-09-07T03:47:13.591Z,0.00
2022-09-07T03:48:13.523Z,0.24
2022-09-07T03:49:13.566Z,3.20
2022-09-07T03:50:13.661Z,3.08
2022-09-07T03:51:15.262Z,1.72
2022-09-07T03:52:13.112Z,0.00
2022-09-07T03:53:13.133Z,0.00
2022-09-07T03:54:14.000Z,0.00
2022-09-07T03:55:13.047Z,1.40
2022-09-07T03:56:13.274Z,4.32
2022-09-07T03:57:13.471Z,3.08
2022-09-07T03:58:13.586Z,2.88
2022-09-07T03:59:13.450Z,0.52
2022-09-07T04:00:13.508Z,0.00
2022-09-07T04:01:13.797Z,0.00
2022-09-07T04:02:13.656Z,0.00
2022-09-07T04:03:13.941Z,0.00
2022-09-07T04:04:12.778Z,0.00
2022-09-07T04:05:13.591Z,0.00
2022-09-07T04:06:13.383Z,5.92
2022-09-07T04:07:13.308Z,6.68
2022-09-07T04:08:13.256Z,4.32
2022-09-07T04:09:13.407Z,6.04
2022-09-07T04:10:13.470Z,6.96
2022-09-07T04:11:13.499Z,5.16
2022-09-07T04:12:13.882Z,6.56
2022-09-07T04:13:13.802Z,4.64
2022-09-07T04:14:13.945Z,2.12
2022-09-07T04:15:14.010Z,1.76
2022-09-07T04:16:12.863Z,1.68
2022-09-07T04:17:13.760Z,2.20
2022-09-07T04:18:18.709Z,0.84
2022-09-07T04:19:13.808Z,0.04
2022-09-07T04:20:14.326Z,0.00
2022-09-07T04:21:13.305Z,0.36
2022-09-07T04:22:13.217Z,0.00
2022-09-07T04:23:18.177Z,0.00
2022-09-07T04:24:13.170Z,0.00
2022-09-07T04:25:13.323Z,0.00
2022-09-07T04:26:13.207Z,0.00
2022-09-07T04:27:13.094Z,0.00
2022-09-07T04:28:12.841Z,0.00
2022-09-07T04:29:13.781Z,0.00
2022-09-07T04:30:13.926Z,0.00
2022-09-07T04:31:13.269Z,1.40
2022-09-07T04:32:15.844Z,1.24
2022-09-07T04:33:13.218Z,1.76
2022-09-07T04:34:13.378Z,2.60
2022-09-07T04:35:13.333Z,3.12
2022-09-07T04:36:13.282Z,1.48
2022-09-07T04:37:13.146Z,2.60
2022-09-07T04:38:12.986Z,0.44
2022-09-07T04:39:12.864Z,1.40
2022-09-07T04:40:14.077Z,2.36
2022-09-07T04:41:12.970Z,0.36
2022-09-07T04:42:12.958Z,0.00
2022-09-07T04:43:14.047Z,0.00
2022-09-07T04:44:16.612Z,0.00
2022-09-07T04:45:12.872Z,0.44
2022-09-07T04:46:14.148Z,3.24
2022-09-07T04:47:15.021Z,2.48
2022-09-07T04:48:12.844Z,2.96
2022-09-07T04:49:14.077Z,2.00
2022-09-07T04:50:12.951Z,0.68
2022-09-07T04:51:12.767Z,0.00
2022-09-07T04:52:13.817Z,0.00
2022-09-07T04:53:13.673Z,0.00
2022-09-07T04:54:13.882Z,0.00
2022-09-07T04:55:14.064Z,0.00
2022-09-07T04:56:16.797Z,0.00
2022-09-07T04:57:13.015Z,0.00
2022-09-07T04:58:12.871Z,0.00
2022-09-07T04:59:13.885Z,0.00
2022-09-07T05:00:12.661Z,0.00
2022-09-07T05:01:13.617Z,0.00
2022-09-07T05:02:13.924Z,0.00
2022-09-07T05:03:13.232Z,0.00
2022-09-07T05:04:13.092Z,0.00
2022-09-07T05:05:12.972Z,0.00
2022-09-07T05:06:12.928Z,0.00
2022-09-07T05:07:12.877Z,0.00
2022-09-07T05:08:13.776Z,0.00
2022-09-07T05:09:13.693Z,0.00
2022-09-07T05:10:13.672Z,0.00
2022-09-07T05:11:13.571Z,0.00
2022-09-07T05:12:13.607Z,0.00
2022-09-07T05:13:13.797Z,0.00
2022-09-07T05:14:13.815Z,0.00
2022-09-07T05:15:15.705Z,0.00
2022-09-07T05:16:13.741Z,0.00
2022-09-07T05:17:13.656Z,0.00
2022-09-07T05:18:13.853Z,0.00
2022-09-07T05:19:13.812Z,0.00
2022-09-07T05:20:20.076Z,0.00
2022-09-07T05:21:13.391Z,0.00
2022-09-07T05:22:13.384Z,0.00
2022-09-07T05:23:13.286Z,0.00
2022-09-07T05:24:13.396Z,0.00
2022-09-07T05:25:13.571Z,0.00
2022-09-07T05:26:13.740Z,0.00
2022-09-07T05:27:13.578Z,0.00
2022-09-07T05:28:18.579Z,0.00
2022-09-07T05:32:18.494Z,0.00
2022-09-07T05:33:13.393Z,0.00
2022-09-07T05:35:13.948Z,0.00
2022-09-07T05:36:13.278Z,0.00
2022-09-07T05:37:13.107Z,0.68
2022-09-07T05:38:13.057Z,0.08
2022-09-07T05:39:13.345Z,0.00
2022-09-07T05:40:14.083Z,0.00
2022-09-07T05:41:13.005Z,0.08
2022-09-07T05:42:12.981Z,0.00
2022-09-07T05:43:13.375Z,1.52
2022-09-07T05:45:13.426Z,1.12
2022-09-07T05:46:13.592Z,1.23
2022-09-07T05:47:13.631Z,0.96
2022-09-07T05:48:13.539Z,2.60
2022-09-07T05:49:13.534Z,1.88
2022-09-07T05:50:13.698Z,1.96
2022-09-07T05:51:13.576Z,1.52
2022-09-07T05:52:13.759Z,1.32
2022-09-07T05:53:13.877Z,1.16
2022-09-07T05:54:14.045Z,1.44
2022-09-07T05:55:28.816Z,0.64
2022-09-07T05:56:13.590Z,0.32
2022-09-07T05:57:13.481Z,0.00
2022-09-07T05:58:13.386Z,0.00
2022-09-07T05:59:13.150Z,0.68
2022-09-07T06:00:13.139Z,0.96
2022-09-07T06:01:13.126Z,0.80
2022-09-07T06:02:13.294Z,0.52
2022-09-07T06:03:13.870Z,0.16
2022-09-07T06:04:13.240Z,1.12
2022-09-07T06:05:13.232Z,0.68
2022-09-07T06:06:13.043Z,2.12
2022-09-07T06:07:22.984Z,0.04
2022-09-07T06:08:13.347Z,0.04
2022-09-07T06:09:13.202Z,0.00
2022-09-07T06:10:44.256Z,0.00
2022-09-07T06:11:13.605Z,0.00
2022-09-07T06:12:13.560Z,0.00
2022-09-07T06:13:13.716Z,0.00
2022-09-07T06:14:13.576Z,0.00
2022-09-07T06:15:13.432Z,0.00
2022-09-07T06:16:13.411Z,0.00
2022-09-07T06:17:15.278Z,0.00
2022-09-07T06:18:13.122Z,0.00
2022-09-07T06:19:14.835Z,0.00
2022-09-07T06:20:13.853Z,0.00
2022-09-07T06:21:14.001Z,0.00
2022-09-07T06:22:13.092Z,0.00
2022-09-07T06:23:13.343Z,0.00
2022-09-07T06:24:14.471Z,0.12
2022-09-07T06:25:14.911Z,0.00
2022-09-07T06:26:13.032Z,0.96
2022-09-07T06:27:12.952Z,0.88
2022-09-07T06:28:12.785Z,1.20
2022-09-07T06:29:13.636Z,0.40
2022-09-07T06:30:13.423Z,0.68
2022-09-07T06:31:13.263Z,1.44
2022-09-07T06:32:43.038Z,0.72
2022-09-07T06:33:14.328Z,1.32
2022-09-07T06:34:13.239Z,1.72
2022-09-07T06:35:13.153Z,1.96
2022-09-07T06:36:12.999Z,0.28
2022-09-07T06:37:12.875Z,0.72
2022-09-07T06:38:13.801Z,0.96
2022-09-07T06:39:13.942Z,0.68
2022-09-07T06:40:13.195Z,0.12
2022-09-07T06:42:13.229Z,0.16
2022-09-07T06:43:13.055Z,0.40
2022-09-07T06:44:13.114Z,0.08
2022-09-07T06:45:12.946Z,0.12
2022-09-07T06:47:13.059Z,0.04
2022-09-07T06:48:13.188Z,0.84
2022-09-07T06:49:13.074Z,0.80
2022-09-07T06:50:12.997Z,0.00
2022-09-07T06:51:13.994Z,0.08
2022-09-07T06:52:13.035Z,0.00
2022-09-07T06:53:35.234Z,0.48
2022-09-07T06:55:15.705Z,0.12
2022-09-07T06:56:14.064Z,0.12
2022-09-07T06:57:13.309Z,0.44
2022-09-07T06:58:13.493Z,0.00
2022-09-07T06:59:13.337Z,0.00
2022-09-07T07:00:14.699Z,1.08
2022-09-07T07:01:15.417Z,1.48
2022-09-07T07:02:13.753Z,2.12
2022-09-07T07:03:13.824Z,0.80
2022-09-07T07:04:13.710Z,0.16
2022-09-07T07:05:13.937Z,1.12
2022-09-07T07:06:13.997Z,1.16
2022-09-07T07:07:13.019Z,0.00
2022-09-07T07:08:14.717Z,2.92
2022-09-07T07:09:13.594Z,1.52
2022-09-07T07:10:13.509Z,1.20
2022-09-07T07:11:13.394Z,2.56
2022-09-07T07:12:13.618Z,4.04
2022-09-07T07:14:13.372Z,3.36
2022-09-07T07:15:13.733Z,6.48
2022-09-07T07:16:13.675Z,5.36
2022-09-07T07:17:13.744Z,2.44
2022-09-07T07:18:21.274Z,7.68
2022-09-07T07:19:13.788Z,4.88
2022-09-07T07:20:13.621Z,6.36
2022-09-07T07:21:13.697Z,5.36
2022-09-07T07:22:36.036Z,5.00
2022-09-07T07:23:13.254Z,8.80
2022-09-07T07:24:13.309Z,3.80
2022-09-07T07:25:13.191Z,3.64
2022-09-07T07:26:13.283Z,2.96
2022-09-07T07:27:13.198Z,7.24
2022-09-07T07:29:15.837Z,4.84
2022-09-07T07:30:13.063Z,4.80
2022-09-07T07:31:13.286Z,5.16
2022-09-07T07:32:13.572Z,8.92
2022-09-07T07:33:13.927Z,6.24
2022-09-07T07:34:12.957Z,4.56
2022-09-07T07:35:14.106Z,4.12
2022-09-07T07:36:14.924Z,5.14
2022-09-07T07:37:13.124Z,9.72
2022-09-07T07:42:13.830Z,4.12
2022-09-07T07:43:14.119Z,9.96
2022-09-07T07:44:14.850Z,8.36
2022-09-07T07:46:13.942Z,5.12
2022-09-07T07:47:12.805Z,7.24
2022-09-07T07:48:14.073Z,9.56
2022-09-07T07:49:12.979Z,6.76
2022-09-07T07:50:33.969Z,9.84
2022-09-07T07:51:14.740Z,15.52
2022-09-07T07:53:42.459Z,12.84
2022-09-07T07:54:15.654Z,8.84
2022-09-07T07:55:43.410Z,10.88
2022-09-07T07:56:16.526Z,14.24
2022-09-07T07:57:13.697Z,8.36
2022-09-07T07:58:13.786Z,11.60
2022-09-07T07:59:15.867Z,6.44
2022-09-07T08:00:14.429Z,7.12
2022-09-07T08:01:14.096Z,7.96
2022-09-07T08:02:14.952Z,6.72
2022-09-07T08:03:13.238Z,3.92
2022-09-07T08:04:13.429Z,7.52
2022-09-07T08:05:13.392Z,10.60
2022-09-07T08:06:15.114Z,6.72
2022-09-07T08:07:13.185Z,5.96
2022-09-07T08:08:15.967Z,5.12
2022-09-07T08:09:14.030Z,10.28
2022-09-07T08:10:15.062Z,6.12
2022-09-07T08:11:13.431Z,7.04
2022-09-07T08:12:13.231Z,5.92
2022-09-07T08:13:13.130Z,12.20
2022-09-07T08:14:14.646Z,8.36
2022-09-07T08:15:13.583Z,8.96
2022-09-07T08:16:13.720Z,6.44
2022-09-07T08:17:13.623Z,8.72
2022-09-07T08:18:13.533Z,8.00
2022-09-07T08:19:13.872Z,12.00
2022-09-07T08:20:14.421Z,8.52
2022-09-07T08:21:13.759Z,9.80
2022-09-07T08:22:13.996Z,8.88
2022-09-07T08:23:12.977Z,4.40
2022-09-07T08:24:16.052Z,9.48
2022-09-07T08:25:13.191Z,11.40
2022-09-07T08:26:13.114Z,11.16
2022-09-07T08:27:13.485Z,12.68
2022-09-07T08:28:13.387Z,13.96
2022-09-07T08:29:14.943Z,8.32
2022-09-07T08:30:15.500Z,11.44
2022-09-07T08:31:13.439Z,12.00
2022-09-07T08:32:13.424Z,12.48
2022-09-07T08:33:13.471Z,16.44
2022-09-07T08:34:13.692Z,6.92
2022-09-07T08:35:14.069Z,9.88
2022-09-07T08:36:13.054Z,9.04
2022-09-07T08:37:13.376Z,8.16
2022-09-07T08:38:19.147Z,9.48
2022-09-07T08:39:13.818Z,18.40
2022-09-07T08:40:15.704Z,14.88
2022-09-07T08:41:15.220Z,11.84
2022-09-07T08:42:13.299Z,9.52
2022-09-07T08:43:14.595Z,12.48
2022-09-07T08:44:15.495Z,11.16
2022-09-07T08:45:15.207Z,16.68
2022-09-07T08:46:17.338Z,19.12
2022-09-07T08:47:15.284Z,20.08
2022-09-07T08:48:13.513Z,9.92
2022-09-07T08:49:15.101Z,10.44
2022-09-07T08:50:13.227Z,8.72
2022-09-07T08:51:19.060Z,13.44
2022-09-07T08:52:13.379Z,11.00
2022-09-07T08:53:16.806Z,14.12
2022-09-07T08:54:13.683Z,16.32
2022-09-07T08:55:17.763Z,12.76
2022-09-07T08:56:17.799Z,5.60
2022-09-07T08:57:22.651Z,6.32
2022-09-07T08:58:27.034Z,6.44
2022-09-07T08:59:13.079Z,8.32
2022-09-07T09:00:16.987Z,9.72
2022-09-07T09:01:32.460Z,10.52
2022-09-07T09:02:35.068Z,12.56
2022-09-07T09:03:32.024Z,11.48
2022-09-07T09:04:17.678Z,5.92
2022-09-07T09:05:19.520Z,2.08
2022-09-07T09:06:18.029Z,2.60
2022-09-07T09:07:17.826Z,3.24
2022-09-07T09:08:13.889Z,9.72
2022-09-07T09:09:13.985Z,3.36
2022-09-07T09:10:18.118Z,6.76
2022-09-07T09:11:16.554Z,8.80
2022-09-07T09:12:15.389Z,7.80
2022-09-07T09:13:15.160Z,7.44
2022-09-07T09:14:13.126Z,6.72
2022-09-07T09:15:13.175Z,10.60
2022-09-07T09:16:13.114Z,4.08
2022-09-07T09:17:16.737Z,10.00
2022-09-07T09:18:14.546Z,6.48
2022-09-07T09:19:17.199Z,7.16
2022-09-07T09:20:17.703Z,8.28
2022-09-07T09:21:18.048Z,7.08
2022-09-07T09:22:17.417Z,1.92
2022-09-07T09:23:18.403Z,6.52
2022-09-07T09:24:18.305Z,2.04
2022-09-07T09:25:16.580Z,0.00
2022-09-07T09:26:13.542Z,0.76
2022-09-07T09:27:18.019Z,4.12
2022-09-07T09:28:14.106Z,7.80
2022-09-07T09:29:12.946Z,6.68
2022-09-07T09:30:12.839Z,4.92
2022-09-07T09:31:13.913Z,8.04
2022-09-07T09:32:12.864Z,6.88
2022-09-07T09:33:14.624Z,9.12
2022-09-07T09:34:13.582Z,9.84
2022-09-07T09:35:13.387Z,4.60
2022-09-07T09:36:14.656Z,4.00
2022-09-07T09:37:13.584Z,10.24
2022-09-07T09:38:16.538Z,1.68
2022-09-07T09:39:18.438Z,6.32
2022-09-07T09:40:16.870Z,6.16
2022-09-07T09:41:12.815Z,3.52
2022-09-07T09:42:15.679Z,8.80
2022-09-07T09:43:18.270Z,8.36
2022-09-07T09:44:13.278Z,9.04
2022-09-07T09:45:15.008Z,4.76
2022-09-07T09:46:16.237Z,6.56
2022-09-07T09:47:31.286Z,10.64
2022-09-07T09:48:17.328Z,7.20
2022-09-07T09:49:15.416Z,9.88
2022-09-07T09:52:28.907Z,3.64
2022-09-07T09:52:43.531Z,14.32
2022-09-07T09:53:15.324Z,14.80
2022-09-07T09:54:18.738Z,16.80
2022-09-07T09:55:33.832Z,16.84
2022-09-07T09:56:16.226Z,10.64
2022-09-07T09:57:16.655Z,7.96
2022-09-07T10:00:27.959Z,8.96
2022-09-07T10:01:22.701Z,10.32
2022-09-07T10:04:17.538Z,5.52
2022-09-07T10:05:16.866Z,5.64
2022-09-07T10:06:17.263Z,8.12
2022-09-07T10:07:18.965Z,11.16
2022-09-07T10:08:16.464Z,12.52
2022-09-07T10:09:18.878Z,15.16
2022-09-07T10:10:19.589Z,6.72
2022-09-07T10:11:13.461Z,7.48
2022-09-07T10:12:15.889Z,8.04
2022-09-07T10:13:15.321Z,7.36
2022-09-07T10:14:14.142Z,11.68
2022-09-07T10:15:17.087Z,15.28
2022-09-07T10:16:13.053Z,17.20
2022-09-07T10:17:13.007Z,8.68
2022-09-07T10:18:15.348Z,9.32
2022-09-07T10:19:18.839Z,4.80
2022-09-07T10:20:12.937Z,4.00
2022-09-07T10:21:14.283Z,7.84
2022-09-07T10:22:16.265Z,6.44
2022-09-07T10:23:15.717Z,3.40
2022-09-07T10:24:18.188Z,5.00
2022-09-07T10:25:17.093Z,2.08
2022-09-07T10:26:16.829Z,1.96
2022-09-07T10:27:16.375Z,4.68
2022-09-07T10:28:15.092Z,5.16
2022-09-07T10:29:13.381Z,14.28
2022-09-07T10:30:14.078Z,7.44
2022-09-07T10:31:15.528Z,9.56
2022-09-07T10:32:14.039Z,6.04
2022-09-07T10:33:15.972Z,10.00
2022-09-07T10:34:27.621Z,13.64
2022-09-07T10:35:16.701Z,9.00
2022-09-07T10:36:16.998Z,7.12
2022-09-07T10:37:12.859Z,8.64
2022-09-07T10:38:18.573Z,10.72
2022-09-07T10:39:17.819Z,7.60
2022-09-07T10:40:13.883Z,6.40
2022-09-07T10:41:15.964Z,2.12
2022-09-07T10:42:16.196Z,5.44
2022-09-07T10:43:21.456Z,3.68
2022-09-07T10:44:17.604Z,10.68
2022-09-07T10:45:15.065Z,12.16
2022-09-07T10:46:56.182Z,9.32
2022-09-07T10:47:16.805Z,4.64
2022-09-07T10:48:20.036Z,8.04
2022-09-07T10:49:14.584Z,7.20
2022-09-07T10:50:22.547Z,8.72
2022-09-07T10:51:14.830Z,9.40
2022-09-07T10:52:17.203Z,1.28
2022-09-07T10:53:39.739Z,0.44
2022-09-07T10:54:31.776Z,10.32
2022-09-07T10:55:19.237Z,9.64
2022-09-07T10:56:16.111Z,8.64
2022-09-07T10:57:18.070Z,5.84
2022-09-07T10:58:17.794Z,5.76
2022-09-07T10:59:16.221Z,9.88
2022-09-07T11:00:17.153Z,8.68
2022-09-07T11:01:17.843Z,8.28
2022-09-07T11:02:17.339Z,12.60
2022-09-07T11:03:25.627Z,8.24
2022-09-07T11:04:17.262Z,13.52
2022-09-07T11:05:17.157Z,9.56
2022-09-07T11:06:16.689Z,6.16
2022-09-07T11:07:18.556Z,5.40
2022-09-07T11:08:16.529Z,7.60
2022-09-07T11:09:20.030Z,14.12
2022-09-07T11:10:18.839Z,16.52
2022-09-07T11:11:18.401Z,12.52
2022-09-07T11:12:17.384Z,10.84
2022-09-07T11:13:16.457Z,5.12
2022-09-07T11:14:17.950Z,3.12
2022-09-07T11:15:17.791Z,6.88
2022-09-07T11:17:16.660Z,15.96
2022-09-07T11:18:21.472Z,2.56
2022-09-07T11:19:36.146Z,2.52
2022-09-07T11:20:21.393Z,10.16
2022-09-07T11:21:56.118Z,24.00
2022-09-07T11:22:14.318Z,19.20
2022-09-07T11:23:17.919Z,19.64
2022-09-07T11:24:18.441Z,14.44
2022-09-07T11:25:31.494Z,8.52
2022-09-07T11:26:20.417Z,7.12
2022-09-07T11:27:16.923Z,9.96
2022-09-07T11:28:13.739Z,5.72
2022-09-07T11:29:30.827Z,4.80
2022-09-07T11:30:17.187Z,8.72
2022-09-07T11:31:17.842Z,16.56
2022-09-07T11:32:16.646Z,8.92
2022-09-07T11:33:16.260Z,5.40
2022-09-07T11:34:25.874Z,5.40
2022-09-07T11:35:18.224Z,5.64
2022-09-07T11:36:15.261Z,4.56
2022-09-07T11:37:17.498Z,5.84
2022-09-07T11:38:16.691Z,10.68
2022-09-07T11:39:19.175Z,3.36
2022-09-07T11:40:18.611Z,15.60
2022-09-07T11:41:16.931Z,17.68
2022-09-07T11:42:44.049Z,9.28
2022-09-07T11:43:18.198Z,5.40
2022-09-07T11:44:16.931Z,17.24
2022-09-07T11:45:17.006Z,8.91
2022-09-07T11:46:17.239Z,2.04
2022-09-07T11:47:18.581Z,8.96
2022-09-07T11:48:19.847Z,14.72
2022-09-07T11:49:17.745Z,8.04
2022-09-07T11:50:18.427Z,6.80
2022-09-07T11:51:17.189Z,14.48
2022-09-07T11:52:19.203Z,11.04
2022-09-07T11:53:19.537Z,13.76
2022-09-07T11:54:19.044Z,8.92
2022-09-07T11:55:18.533Z,5.32
2022-09-07T11:56:19.146Z,3.32
2022-09-07T11:57:19.930Z,4.16
2022-09-07T11:58:19.123Z,9.96
2022-09-07T11:59:19.208Z,12.48
2022-09-07T12:00:17.232Z,8.32
2022-09-07T12:01:18.792Z,4.52
2022-09-07T12:02:19.233Z,9.64
2022-09-07T12:03:22.607Z,12.04
2022-09-07T12:04:17.725Z,11.48
2022-09-07T12:05:19.175Z,9.68
2022-09-07T12:06:19.357Z,8.52
2022-09-07T12:07:18.915Z,4.48
2022-09-07T12:08:19.017Z,2.36
2022-09-07T12:09:17.512Z,10.68
2022-09-07T12:10:19.248Z,6.28
2022-09-07T12:11:23.247Z,2.44
2022-09-07T12:12:19.718Z,7.64
2022-09-07T12:13:20.013Z,11.88
2022-09-07T12:14:18.572Z,17.60
2022-09-07T12:15:20.955Z,13.64
2022-09-07T12:16:19.502Z,9.48
2022-09-07T12:17:19.474Z,8.56
2022-09-07T12:18:19.267Z,10.48
2022-09-07T12:19:19.261Z,7.76
2022-09-07T12:20:19.132Z,11.16
2022-09-07T12:21:18.422Z,9.60
2022-09-07T12:22:18.307Z,5.32
2022-09-07T12:23:19.631Z,5.08
2022-09-07T12:24:17.925Z,6.24
2022-09-07T12:25:20.381Z,9.08
2022-09-07T12:26:18.531Z,9.84
2022-09-07T12:27:19.777Z,5.44
2022-09-07T12:28:21.984Z,8.68
2022-09-07T12:29:19.634Z,7.40
2022-09-07T12:30:19.924Z,9.24
2022-09-07T12:31:20.321Z,8.44
2022-09-07T12:33:19.688Z,8.52
2022-09-07T12:34:19.923Z,9.76
2022-09-07T12:35:18.655Z,8.76
2022-09-07T12:36:19.895Z,6.28
2022-09-07T12:37:18.828Z,3.76
2022-09-07T12:38:19.319Z,5.40
2022-09-07T12:39:20.922Z,5.68
2022-09-07T12:40:17.926Z,5.04
2022-09-07T12:41:19.478Z,5.12
2022-09-07T12:42:34.319Z,5.24
2022-09-07T12:43:17.718Z,6.00
2022-09-07T12:44:18.179Z,3.28
2022-09-07T12:45:18.681Z,6.68
2022-09-07T12:46:18.402Z,5.80
2022-09-07T12:47:18.571Z,0.84
2022-09-07T12:48:20.126Z,4.20
2022-09-07T12:49:18.968Z,3.80
2022-09-07T12:50:19.565Z,3.00
2022-09-07T12:51:59.679Z,6.68
2022-09-07T12:52:16.861Z,3.24
2022-09-07T12:53:18.144Z,8.52
2022-09-07T12:54:18.656Z,7.44
2022-09-07T12:55:27.824Z,16.32
2022-09-07T12:56:20.647Z,7.00
2022-09-07T12:57:31.331Z,8.72
2022-09-07T12:58:18.852Z,7.32
2022-09-07T12:59:20.051Z,6.84
2022-09-07T13:00:19.132Z,10.96
2022-09-07T13:01:18.861Z,11.16
2022-09-07T13:02:18.157Z,9.24
2022-09-07T13:04:19.351Z,2.92
2022-09-07T13:05:18.176Z,5.72
2022-09-07T13:06:18.658Z,7.08
2022-09-07T13:07:19.548Z,5.80
2022-09-07T13:08:14.958Z,4.28
2022-09-07T13:09:17.228Z,6.76
2022-09-07T13:10:17.847Z,8.72
2022-09-07T13:11:16.986Z,10.72
2022-09-07T13:12:52.778Z,10.28
2022-09-07T13:13:18.866Z,12.12
2022-09-07T13:14:17.978Z,2.64
2022-09-07T13:15:24.010Z,1.68
2022-09-07T13:16:18.700Z,7.60
2022-09-07T13:17:19.042Z,11.64
2022-09-07T13:18:16.165Z,12.64
2022-09-07T13:19:17.108Z,14.28
2022-09-07T13:20:16.585Z,9.16
2022-09-07T13:21:17.788Z,7.04
2022-09-07T13:22:16.942Z,5.40
2022-09-07T13:23:17.642Z,6.96
2022-09-07T13:24:47.006Z,6.84
2022-09-07T13:25:17.940Z,8.96
2022-09-07T13:26:19.316Z,9.92
2022-09-07T13:27:18.223Z,6.04
2022-09-07T13:28:17.272Z,1.00
2022-09-07T13:29:18.527Z,2.76
2022-09-07T13:30:17.719Z,1.12
2022-09-07T13:31:19.453Z,0.32
2022-09-07T13:32:16.855Z,0.00
2022-09-07T13:33:19.290Z,6.20
2022-09-07T13:34:17.186Z,3.68
2022-09-07T13:35:19.043Z,6.28
2022-09-07T13:36:17.518Z,11.28
2022-09-07T13:37:20.107Z,9.84